Time;durP1;ratioP1;P1;durP2;ratioP2;P2;SDS_P1;SDS_P2;PMS_P1;PMS_P2;Temp;Humidity;BMP_temperature;BMP_pressure;BME280_temperature;BME280_humidity;BME280_pressure;Samples;Min_cycle;Max_cycle;Signal;HPM_P1;HPM_P2
2023/06/22 00:01:17;;;;;;;34.05;30.02;;;23.50;99.90;;;;;;4956584;28;20078;-75
2023/06/22 00:03:43;;;;;;;34.65;31.05;;;23.40;99.90;;;;;;4956764;28;20038;-80
2023/06/22 00:06:09;;;;;;;35.35;31.58;;;23.30;99.90;;;;;;4956442;28;20035;-80
2023/06/22 00:08:35;;;;;;;35.15;31.02;;;23.30;99.90;;;;;;4956401;28;20495;-79
2023/06/22 00:11:01;;;;;;;36.03;30.90;;;23.40;99.90;;;;;;4949090;28;20040;-80
2023/06/22 00:13:26;;;;;;;37.13;33.13;;;23.30;99.90;;;;;;4954301;28;20027;-80
2023/06/22 00:15:52;;;;;;;37.33;33.50;;;23.20;99.90;;;;;;4956924;28;20023;-80
2023/06/22 00:18:18;;;;;;;36.45;32.60;;;23.30;99.90;;;;;;4956209;28;20582;-80
2023/06/22 00:20:45;;;;;;;35.28;31.55;;;23.40;99.90;;;;;;4956400;28;20035;-79
2023/06/22 00:23:11;;;;;;;39.10;31.95;;;23.10;99.90;;;;;;4956100;28;20047;-78
2023/06/22 00:25:40;;;;;;;35.63;31.92;;;23.10;99.90;;;;;;4956587;28;20078;-80
2023/06/22 00:28:07;;;;;;;36.90;31.60;;;23.10;99.90;;;;;;4956023;28;20147;-80
2023/06/22 00:30:34;;;;;;;38.60;34.65;;;23.00;99.90;;;;;;4956546;28;20163;-80
2023/06/22 00:33:00;;;;;;;41.50;37.22;;;22.80;99.90;;;;;;4956039;28;20514;-79
2023/06/22 00:35:30;;;;;;;41.40;37.15;;;22.70;99.90;;;;;;4956070;28;20027;-80
2023/06/22 00:38:04;;;;;;;42.65;38.42;;;22.60;99.90;;;;;;4956700;28;20376;-80
2023/06/22 00:40:31;;;;;;;42.65;38.40;;;22.60;99.90;;;;;;4957469;28;20590;-75
2023/06/22 00:42:58;;;;;;;43.20;38.75;;;22.60;99.90;;;;;;4956489;28;20098;-81
2023/06/22 00:45:25;;;;;;;43.17;38.67;;;22.60;99.90;;;;;;4958284;28;20035;-80
2023/06/22 00:47:57;;;;;;;44.97;36.42;;;22.60;99.90;;;;;;4941233;28;20027;-80
2023/06/22 00:50:26;;;;;;;40.72;35.60;;;22.50;99.90;;;;;;4958381;28;20498;-81
2023/06/22 00:52:56;;;;;;;46.58;35.72;;;22.50;99.90;;;;;;4941354;29;20024;-80
2023/06/22 00:55:22;;;;;;;37.28;33.28;;;22.50;99.90;;;;;;4942785;28;20399;-80
2023/06/22 00:57:49;;;;;;;37.38;33.50;;;22.60;99.90;;;;;;4958152;28;20019;-81
2023/06/22 01:00:19;;;;;;;36.58;31.92;;;22.60;99.90;;;;;;4957760;28;20435;-79
2023/06/22 01:02:46;;;;;;;37.67;32.65;;;22.60;99.90;;;;;;4957675;28;20090;-81
2023/06/22 01:05:16;;;;;;;38.40;33.65;;;22.70;99.90;;;;;;4941563;29;20115;-80
2023/06/22 01:07:54;;;;;;;37.30;33.15;;;22.60;99.90;;;;;;4941806;29;20040;-80
2023/06/22 01:10:39;;;;;;;38.55;33.22;;;22.70;99.90;;;;;;4957988;28;20110;-80
2023/06/22 01:13:14;;;;;;;36.42;32.03;;;22.80;99.90;;;;;;4936313;28;20395;-80
2023/06/22 01:16:01;;;;;;;36.28;32.22;;;22.80;99.90;;;;;;4956084;28;20030;-81
2023/06/22 01:18:30;;;;;;;36.65;32.58;;;22.70;99.90;;;;;;4954837;28;20090;-79
2023/06/22 01:20:57;;;;;;;37.55;33.80;;;22.70;99.90;;;;;;4938863;29;20033;-81
2023/06/22 01:23:39;;;;;;;38.88;34.22;;;22.60;99.90;;;;;;4951062;28;20082;-81
2023/06/22 01:26:35;;;;;;;39.23;35.20;;;22.50;99.90;;;;;;4951059;28;20035;-81
2023/06/22 01:29:02;;;;;;;42.53;32.35;;;22.50;99.90;;;;;;4956579;28;20035;-81
2023/06/22 01:31:29;;;;;;;39.15;32.78;;;22.60;99.90;;;;;;4938863;29;20500;-80
2023/06/22 01:34:04;;;;;;;38.75;34.42;;;22.60;99.90;;;;;;4955111;28;20023;-81
2023/06/22 01:36:32;;;;;;;39.88;32.92;;;22.60;99.90;;;;;;4926190;29;20470;-80
2023/06/22 01:38:58;;;;;;;33.47;29.90;;;22.60;99.90;;;;;;4955321;28;20055;-81
2023/06/22 01:41:26;;;;;;;32.33;29.00;;;22.60;99.90;;;;;;4955830;28;20027;-81
2023/06/22 01:43:54;;;;;;;34.60;30.85;;;22.60;99.90;;;;;;4955451;28;20023;-79
2023/06/22 01:46:21;;;;;;;36.17;32.33;;;22.60;99.90;;;;;;4937299;29;20487;-80
2023/06/22 01:48:47;;;;;;;34.20;30.35;;;22.60;99.90;;;;;;4939187;28;20063;-81
2023/06/22 01:51:14;;;;;;;36.97;31.63;;;22.60;99.90;;;;;;4955966;28;20101;-81
2023/06/22 01:53:40;;;;;;;33.50;29.95;;;22.50;99.90;;;;;;4955931;28;20023;-81
2023/06/22 01:56:06;;;;;;;35.05;28.48;;;22.50;99.90;;;;;;4954897;28;20554;-81
2023/06/22 01:58:35;;;;;;;35.75;31.00;;;22.50;99.90;;;;;;4938164;28;20106;-80
2023/06/22 02:01:12;;;;;;;37.10;31.50;;;22.50;99.90;;;;;;4937412;29;20039;-80
2023/06/22 02:03:56;;;;;;;36.85;33.03;;;22.50;99.90;;;;;;4954939;28;20031;-81
2023/06/22 02:06:27;;;;;;;37.22;32.78;;;22.30;99.90;;;;;;4959331;28;20039;-81
2023/06/22 02:09:00;;;;;;;37.72;33.83;;;22.40;99.90;;;;;;4941496;29;20062;-80
2023/06/22 02:11:27;;;;;;;38.65;34.58;;;22.40;99.90;;;;;;4937986;28;20043;-81
2023/06/22 02:13:54;;;;;;;38.58;34.47;;;22.40;99.90;;;;;;4937384;29;20023;-78
2023/06/22 02:16:21;;;;;;;38.65;34.72;;;22.40;99.90;;;;;;4937476;28;20059;-75
2023/06/22 02:18:50;;;;;;;39.58;32.85;;;22.40;99.90;;;;;;4955489;28;20020;-81
2023/06/22 02:21:20;;;;;;;38.65;34.63;;;22.40;99.90;;;;;;4936764;28;20122;-80
2023/06/22 02:23:47;;;;;;;37.50;33.65;;;22.30;99.90;;;;;;4954785;28;20038;-77
2023/06/22 02:26:13;;;;;;;37.15;33.25;;;22.30;99.90;;;;;;4954098;28;20031;-81
2023/06/22 02:28:39;;;;;;;39.40;33.80;;;22.10;99.90;;;;;;4954202;28;20031;-81
2023/06/22 02:31:04;;;;;;;41.05;35.15;;;21.90;99.90;;;;;;4953816;28;20023;-80
2023/06/22 02:33:30;;;;;;;36.38;31.92;;;21.80;99.90;;;;;;4953889;29;20065;-78
2023/06/22 02:35:56;;;;;;;39.00;34.72;;;21.80;99.90;;;;;;4936441;29;20090;-81
2023/06/22 02:38:24;;;;;;;40.53;36.13;;;21.70;99.90;;;;;;4953514;29;20022;-80
2023/06/22 02:40:51;;;;;;;44.58;38.42;;;21.80;99.90;;;;;;4954191;28;20436;-74
2023/06/22 02:43:17;;;;;;;40.33;36.03;;;21.70;99.90;;;;;;4936573;29;20062;-73
2023/06/22 02:45:44;;;;;;;44.33;39.55;;;21.70;99.90;;;;;;4953956;28;20114;-79
2023/06/22 02:48:11;;;;;;;46.40;41.47;;;21.70;99.90;;;;;;4952534;28;20027;-79
2023/06/22 02:50:37;;;;;;;48.22;40.28;;;21.70;99.90;;;;;;4935903;29;20023;-79
2023/06/22 02:53:04;;;;;;;48.17;41.15;;;21.70;99.90;;;;;;4943574;29;20398;-79
2023/06/22 02:55:34;;;;;;;45.95;40.65;;;21.70;99.90;;;;;;4952470;28;20025;-79
2023/06/22 02:58:04;;;;;;;48.35;39.88;;;21.70;99.90;;;;;;4954185;28;20047;-80
2023/06/22 03:00:32;;;;;;;49.85;43.85;;;21.70;99.90;;;;;;4936686;29;20023;-80
2023/06/22 03:02:58;;;;;;;47.22;41.42;;;21.80;99.90;;;;;;4936875;29;20027;-80
2023/06/22 03:05:24;;;;;;;47.88;41.10;;;21.80;99.90;;;;;;4936090;29;20043;-79
2023/06/22 03:07:50;;;;;;;47.58;41.25;;;21.90;99.90;;;;;;4950317;28;20476;-79
2023/06/22 03:10:16;;;;;;;46.28;40.67;;;21.90;99.90;;;;;;4941144;28;20039;-79
2023/06/22 03:12:43;;;;;;;46.03;39.50;;;21.90;99.90;;;;;;4946725;28;20109;-79
2023/06/22 03:15:12;;;;;;;45.17;36.25;;;22.00;99.90;;;;;;4936821;28;20032;-77
2023/06/22 03:17:39;;;;;;;40.22;34.95;;;22.00;99.90;;;;;;4933252;29;20031;-80
2023/06/22 03:20:11;;;;;;;42.22;35.58;;;22.10;99.90;;;;;;4931356;28;20046;-79
2023/06/22 03:22:42;;;;;;;38.65;34.35;;;22.20;99.90;;;;;;4936370;29;20023;-79
2023/06/22 03:25:13;;;;;;;40.53;34.30;;;22.30;99.90;;;;;;4953553;28;20039;-79
2023/06/22 03:27:43;;;;;;;41.78;33.38;;;22.30;99.90;;;;;;4936208;29;20026;-80
2023/06/22 03:30:11;;;;;;;33.85;29.95;;;22.30;99.90;;;;;;4936097;29;20027;-79
2023/06/22 03:32:37;;;;;;;35.70;29.05;;;22.40;99.90;;;;;;4954432;28;20019;-80
2023/06/22 03:35:06;;;;;;;33.08;29.23;;;22.50;99.90;;;;;;4936584;29;20090;-75
2023/06/22 03:37:33;;;;;;;33.70;29.83;;;22.60;99.90;;;;;;4936592;29;20020;-78
2023/06/22 03:39:59;;;;;;;40.28;28.95;;;22.70;99.90;;;;;;4953542;28;20038;-77
2023/06/22 03:42:26;;;;;;;33.35;28.73;;;22.90;99.90;;;;;;4927368;29;20050;-80
2023/06/22 03:44:52;;;;;;;32.90;27.00;;;23.20;99.90;;;;;;4950769;28;20047;-75
2023/06/22 03:47:19;;;;;;;32.55;24.23;;;23.40;99.90;;;;;;4953424;28;20130;-75
2023/06/22 03:49:44;;;;;;;35.22;25.10;;;23.50;99.90;;;;;;4936242;29;20031;-78
2023/06/22 03:52:10;;;;;;;31.27;22.80;;;23.80;99.90;;;;;;4953160;28;20494;-78
2023/06/22 03:54:36;;;;;;;29.83;23.20;;;24.20;99.90;;;;;;4953697;28;20027;-75
2023/06/22 03:57:02;;;;;;;29.02;22.77;;;24.40;99.90;;;;;;4953360;28;20458;-80
2023/06/22 03:59:28;;;;;;;43.33;24.52;;;24.60;99.90;;;;;;4956581;28;20030;-78
2023/06/22 04:01:54;;;;;;;29.17;22.67;;;25.00;99.90;;;;;;4949681;29;20023;-79
2023/06/22 04:04:20;;;;;;;25.48;20.75;;;25.70;99.90;;;;;;4958756;28;20067;-80
2023/06/22 04:06:46;;;;;;;25.25;19.67;;;26.20;99.90;;;;;;4960458;28;20038;-78
2023/06/22 04:09:12;;;;;;;28.85;20.65;;;26.70;99.90;;;;;;4941019;29;20048;-79
2023/06/22 04:11:38;;;;;;;22.20;19.80;;;27.10;99.90;;;;;;4954419;28;20031;-80
2023/06/22 04:14:04;;;;;;;30.73;20.02;;;26.90;99.90;;;;;;4960318;29;20042;-81
2023/06/22 04:16:30;;;;;;;26.63;19.52;;;26.80;99.90;;;;;;4958413;29;20031;-82
2023/06/22 04:18:55;;;;;;;28.88;20.17;;;27.20;99.90;;;;;;4958999;28;20030;-75
2023/06/22 04:21:21;;;;;;;27.13;19.52;;;27.00;99.90;;;;;;4958327;28;20090;-79
2023/06/22 04:23:47;;;;;;;25.10;20.92;;;26.90;99.90;;;;;;4956748;28;20109;-83
2023/06/22 04:26:16;;;;;;;32.10;20.17;;;26.30;99.90;;;;;;4956934;28;20073;-74
2023/06/22 04:28:42;;;;;;;27.73;20.45;;;26.40;99.90;;;;;;4956605;28;20058;-73
2023/06/22 04:31:07;;;;;;;27.02;21.10;;;26.10;99.90;;;;;;4956991;29;20055;-73
2023/06/22 04:33:33;;;;;;;27.27;20.10;;;26.50;99.90;;;;;;4955889;28;20110;-82
2023/06/22 04:36:02;;;;;;;25.92;20.65;;;26.70;99.90;;;;;;4956578;28;20035;-74
2023/06/22 04:38:27;;;;;;;25.20;19.80;;;26.70;99.90;;;;;;4955934;28;20106;-82
2023/06/22 04:40:53;;;;;;;27.23;20.90;;;27.00;99.90;;;;;;4956591;28;20122;-73
2023/06/22 04:43:20;;;;;;;23.85;20.25;;;26.80;99.90;;;;;;4955479;28;20032;-82
2023/06/22 04:45:45;;;;;;;24.55;20.13;;;27.30;99.90;;;;;;4955992;28;20039;-83
2023/06/22 04:48:15;;;;;;;26.13;20.35;;;27.70;99.90;;;;;;4957239;28;20023;-78
2023/06/22 04:50:42;;;;;;;24.67;21.20;;;26.60;99.90;;;;;;4956773;28;20046;-77
2023/06/22 04:53:09;;;;;;;31.10;22.73;;;26.40;99.90;;;;;;4957240;29;20027;-80
2023/06/22 04:55:37;;;;;;;30.80;24.48;;;26.80;99.90;;;;;;4956010;28;20438;-75
2023/06/22 04:58:04;;;;;;;25.30;22.20;;;26.20;99.90;;;;;;4956064;28;20032;-82
2023/06/22 05:00:31;;;;;;;28.35;23.88;;;26.30;99.90;;;;;;4955640;28;20042;-82
2023/06/22 05:02:57;;;;;;;27.08;22.42;;;26.50;99.90;;;;;;4955842;28;20058;-83
2023/06/22 05:05:24;;;;;;;30.17;22.27;;;26.40;99.90;;;;;;4955209;28;20031;-83
2023/06/22 05:07:59;;;;;;;28.58;23.27;;;26.60;99.90;;;;;;4955684;28;20035;-79
2023/06/22 05:10:25;;;;;;;30.77;24.52;;;26.50;99.90;;;;;;4955522;28;20031;-82
2023/06/22 05:12:51;;;;;;;30.25;23.95;;;26.50;99.90;;;;;;4955538;28;20042;-80
2023/06/22 05:15:19;;;;;;;26.13;22.17;;;26.60;99.90;;;;;;4955266;28;20023;-82
2023/06/22 05:17:45;;;;;;;29.83;22.75;;;26.70;99.90;;;;;;4948439;28;20027;-74
2023/06/22 05:20:17;;;;;;;29.08;21.48;;;26.90;99.90;;;;;;4955344;28;20444;-82
2023/06/22 05:22:43;;;;;;;27.40;21.00;;;27.10;99.90;;;;;;4955070;28;20027;-82
2023/06/22 05:25:10;;;;;;;24.63;20.88;;;27.00;99.90;;;;;;4955037;28;20505;-79
2023/06/22 05:27:39;;;;;;;36.05;21.70;;;27.40;99.90;;;;;;4954966;28;20130;-82
2023/06/22 05:30:08;;;;;;;32.03;20.45;;;27.50;99.90;;;;;;4955139;28;20028;-82
2023/06/22 05:32:35;;;;;;;26.90;20.83;;;27.50;99.90;;;;;;4954526;28;20067;-84
2023/06/22 05:35:01;;;;;;;23.75;20.77;;;27.80;99.90;;;;;;4968018;28;20038;-83
2023/06/22 05:37:28;;;;;;;28.40;21.23;;;27.80;99.90;;;;;;4955217;28;20097;-83
2023/06/22 05:39:55;;;;;;;32.50;21.60;;;28.00;99.90;;;;;;4955498;28;20035;-82
2023/06/22 05:42:21;;;;;;;27.98;21.63;;;27.80;99.90;;;;;;4942499;28;20015;-83
2023/06/22 05:44:47;;;;;;;31.83;24.05;;;27.80;99.90;;;;;;4954914;28;20043;-83
2023/06/22 05:47:13;;;;;;;30.40;25.23;;;27.60;99.90;;;;;;4955167;28;20027;-82
2023/06/22 05:49:39;;;;;;;30.23;25.38;;;27.20;99.90;;;;;;4955207;28;20471;-83
2023/06/22 05:52:05;;;;;;;27.60;21.75;;;27.40;99.90;;;;;;4955013;28;20023;-83
2023/06/22 05:54:30;;;;;;;35.17;24.05;;;27.70;99.90;;;;;;4954978;28;20031;-82
2023/06/22 05:56:56;;;;;;;27.27;22.17;;;27.80;99.90;;;;;;4954525;28;20027;-80
2023/06/22 05:59:22;;;;;;;29.90;22.35;;;28.20;99.90;;;;;;4954742;28;20024;-82
2023/06/22 06:01:51;;;;;;;31.08;22.25;;;;;;;;;;4967490;28;20137;-82
2023/06/22 06:04:18;;;;;;;23.83;19.70;;;28.90;99.90;;;;;;4954538;28;20023;-83
2023/06/22 06:06:46;;;;;;;23.35;19.17;;;29.20;99.90;;;;;;4954308;28;20482;-82
2023/06/22 06:09:13;;;;;;;24.70;18.10;;;29.00;99.90;;;;;;4954394;28;20043;-83
2023/06/22 06:11:39;;;;;;;25.25;17.95;;;29.10;99.90;;;;;;4955014;28;20043;-81
2023/06/22 06:14:05;;;;;;;22.30;17.27;;;29.10;99.90;;;;;;4954431;28;20127;-81
2023/06/22 06:16:31;;;;;;;24.17;16.42;;;29.20;99.90;;;;;;4954363;28;20028;-82
2023/06/22 06:18:58;;;;;;;21.27;16.58;;;29.30;99.90;;;;;;4955944;28;20138;-78
2023/06/22 06:21:24;;;;;;;24.20;16.50;;;29.80;99.90;;;;;;4955474;28;20027;-73
2023/06/22 06:23:50;;;;;;;22.48;16.13;;;29.90;99.90;;;;;;4953726;28;20031;-81
2023/06/22 06:26:27;;;;;;;20.05;15.80;;;30.10;99.90;;;;;;4954060;28;20035;-84
2023/06/22 06:28:54;;;;;;;22.58;16.63;;;30.30;97.90;;;;;;4953983;28;20082;-73
2023/06/22 06:31:20;;;;;;;21.02;17.13;;;30.30;99.00;;;;;;4953972;28;20023;-83
2023/06/22 06:33:46;;;;;;;32.05;17.80;;;30.50;98.70;;;;;;4954235;29;20039;-74
2023/06/22 06:36:12;;;;;;;23.23;16.80;;;30.60;97.90;;;;;;4954151;28;20114;-79
2023/06/22 06:38:38;;;;;;;23.13;17.25;;;30.80;96.60;;;;;;4953768;28;20042;-78
2023/06/22 06:41:04;;;;;;;30.52;18.75;;;30.70;97.10;;;;;;4953624;28;20039;-78
2023/06/22 06:43:29;;;;;;;22.35;16.85;;;30.80;95.70;;;;;;4954091;28;20035;-74
2023/06/22 06:45:55;;;;;;;24.42;18.83;;;30.70;96.00;;;;;;4953629;28;20050;-84
2023/06/22 06:48:21;;;;;;;21.65;17.05;;;30.40;95.50;;;;;;4953905;28;20086;-82
2023/06/22 06:50:47;;;;;;;27.13;19.63;;;30.70;96.10;;;;;;4953745;28;20031;-84
2023/06/22 06:53:13;;;;;;;28.58;19.48;;;30.70;96.30;;;;;;4954227;28;20027;-83
2023/06/22 06:55:38;;;;;;;26.00;19.02;;;30.50;97.50;;;;;;4954391;28;20035;-85
2023/06/22 06:58:07;;;;;;;30.10;22.40;;;30.50;96.60;;;;;;4953555;28;20019;-85
2023/06/22 07:00:33;;;;;;;28.13;18.92;;;30.30;96.90;;;;;;4954368;28;20073;-85
2023/06/22 07:02:59;;;;;;;28.75;20.58;;;30.70;97.50;;;;;;4955412;28;20047;-86
2023/06/22 07:05:25;;;;;;;30.65;19.73;;;31.00;96.60;;;;;;4954433;28;20443;-83
2023/06/22 07:07:50;;;;;;;24.58;17.23;;;31.10;96.60;;;;;;4953525;28;20031;-85
2023/06/22 07:10:16;;;;;;;26.63;18.77;;;31.10;96.80;;;;;;4954696;28;20035;-85
2023/06/22 07:12:42;;;;;;;29.52;18.10;;;31.30;97.00;;;;;;4953375;28;20132;-83
2023/06/22 07:15:09;;;;;;;26.50;16.25;;;31.50;95.20;;;;;;4953665;28;20047;-83
2023/06/22 07:17:36;;;;;;;20.15;14.15;;;31.70;93.70;;;;;;4953125;28;20152;-86
2023/06/22 07:20:07;;;;;;;21.60;13.60;;;31.50;92.00;;;;;;4953429;28;20494;-74
2023/06/22 07:22:33;;;;;;;;;;;31.40;90.40;;;;;;4941493;29;20023;-85
2023/06/22 07:24:59;;;;;;;19.65;13.45;;;30.90;90.40;;;;;;4953280;28;20047;-85
2023/06/22 07:27:25;;;;;;;18.35;13.48;;;31.30;91.10;;;;;;4953639;28;20027;-83
2023/06/22 07:29:50;;;;;;;20.75;14.77;;;31.40;90.80;;;;;;4953824;28;20055;-82
2023/06/22 07:32:16;;;;;;;19.70;11.88;;;31.40;89.60;;;;;;4948231;28;20035;-86
2023/06/22 07:34:43;;;;;;;17.48;12.10;;;31.50;89.10;;;;;;4957354;28;20015;-85
2023/06/22 07:37:09;;;;;;;21.27;12.77;;;31.70;90.10;;;;;;4957658;28;20031;-86
2023/06/22 07:39:34;;;;;;;18.38;13.68;;;31.60;89.80;;;;;;4957226;28;20098;-86
2023/06/22 07:42:00;;;;;;;20.45;14.75;;;31.70;90.10;;;;;;4951137;28;20055;-84
2023/06/22 07:44:26;;;;;;;22.58;14.73;;;31.90;90.30;;;;;;4956458;28;20046;-85
2023/06/22 07:46:52;;;;;;;20.35;13.95;;;32.20;90.80;;;;;;4956952;28;20053;-85
2023/06/22 07:49:18;;;;;;;20.90;14.63;;;32.50;90.80;;;;;;4956849;28;20035;-86
2023/06/22 07:51:43;;;;;;;20.90;14.68;;;32.50;90.60;;;;;;4956991;28;20111;-76
2023/06/22 07:54:10;;;;;;;27.27;15.63;;;32.70;89.10;;;;;;4957290;28;20027;-79
2023/06/22 07:56:37;;;;;;;21.40;15.48;;;32.80;86.30;;;;;;4957730;28;20550;-85
2023/06/22 07:59:03;;;;;;;20.10;14.60;;;32.90;88.50;;;;;;4957027;28;20478;-85
2023/06/22 08:01:29;;;;;;;22.58;15.27;;;33.00;85.80;;;;;;4957351;28;20019;-79
2023/06/22 08:03:55;;;;;;;19.70;13.45;;;33.30;85.40;;;;;;4957669;28;20031;-77
2023/06/22 08:06:21;;;;;;;17.50;13.25;;;33.50;86.20;;;;;;4956724;28;20039;-83
2023/06/22 08:08:52;;;;;;;19.73;13.32;;;33.30;84.40;;;;;;4956624;28;20073;-85
2023/06/22 08:11:18;;;;;;;18.92;13.95;;;33.30;87.40;;;;;;4956995;28;20043;-85
2023/06/22 08:13:44;;;;;;;18.05;13.52;;;;;;;;;;4956928;28;20023;-85
2023/06/22 08:16:10;;;;;;;21.48;14.27;;;33.30;85.80;;;;;;4956699;28;20461;-84
2023/06/22 08:18:36;;;;;;;23.15;14.98;;;33.10;85.80;;;;;;4956462;29;20106;-85
2023/06/22 08:21:02;;;;;;;21.17;14.00;;;32.90;86.70;;;;;;4957980;28;20529;-84
2023/06/22 08:23:28;;;;;;;21.52;14.75;;;33.00;87.60;;;;;;4956833;28;20019;-85
2023/06/22 08:25:54;;;;;;;24.17;13.85;;;33.30;87.60;;;;;;4956966;28;20032;-84
2023/06/22 08:28:20;;;;;;;16.77;13.27;;;33.20;87.00;;;;;;4956047;28;20384;-84
2023/06/22 08:30:45;;;;;;;20.05;13.93;;;33.20;88.40;;;;;;4956759;28;20027;-83
2023/06/22 08:33:12;;;;;;;19.63;15.80;;;33.40;87.30;;;;;;4956279;28;20049;-84
2023/06/22 08:35:38;;;;;;;17.08;13.15;;;32.50;87.50;;;;;;4956059;28;20387;-83
2023/06/22 08:38:04;;;;;;;18.77;13.98;;;32.70;85.90;;;;;;4957320;28;20039;-83
2023/06/22 08:40:30;;;;;;;18.30;13.73;;;32.90;86.00;;;;;;4923029;28;20043;-83
2023/06/22 08:42:56;;;;;;;16.83;13.00;;;32.30;85.00;;;;;;4956189;29;20023;-85
2023/06/22 08:45:22;;;;;;;17.38;14.05;;;32.30;87.40;;;;;;4955538;28;20130;-84
2023/06/22 08:47:47;;;;;;;19.70;14.02;;;32.40;88.70;;;;;;4956435;28;20098;-84
2023/06/22 08:50:13;;;;;;;20.52;13.13;;;32.80;88.70;;;;;;4956365;28;20403;-81
2023/06/22 08:52:43;;;;;;;18.58;13.30;;;32.90;84.90;;;;;;4956232;28;20376;-82
2023/06/22 08:55:10;;;;;;;17.98;13.50;;;33.00;85.40;;;;;;4955276;29;20468;-83
2023/06/22 08:57:39;;;;;;;19.15;13.27;;;32.30;86.30;;;;;;4957589;28;20035;-86
2023/06/22 09:00:19;;;;;;;24.65;14.68;;;32.30;85.30;;;;;;4956281;28;20028;-85
2023/06/22 09:02:46;;;;;;;22.23;14.83;;;32.90;86.90;;;;;;4956705;29;20035;-82
2023/06/22 09:05:12;;;;;;;21.13;14.07;;;32.40;86.40;;;;;;4938340;29;20384;-81
2023/06/22 09:07:39;;;;;;;20.35;14.75;;;32.50;85.00;;;;;;4956713;29;20026;-82
2023/06/22 09:10:05;;;;;;;20.45;14.65;;;33.00;87.10;;;;;;4956885;28;20035;-84
2023/06/22 09:12:32;;;;;;;17.65;13.82;;;33.30;85.90;;;;;;4956733;28;20074;-85
2023/06/22 09:15:03;;;;;;;19.38;13.30;;;33.40;85.90;;;;;;4956314;28;20479;-83
2023/06/22 09:17:29;;;;;;;21.60;14.65;;;33.30;82.90;;;;;;4959489;28;20023;-85
2023/06/22 09:19:55;;;;;;;18.17;13.77;;;33.20;84.80;;;;;;4955627;28;20053;-80
2023/06/22 09:22:21;;;;;;;16.80;13.07;;;;;;;;;;4956690;28;20558;-74
2023/06/22 09:24:47;;;;;;;19.33;13.32;;;33.50;96.40;;;;;;4954759;28;20042;-80
2023/06/22 09:27:13;;;;;;;15.70;12.95;;;33.20;92.00;;;;;;4955951;29;20052;-84
2023/06/22 09:29:39;;;;;;;20.38;14.48;;;33.20;81.70;;;;;;4954516;28;20035;-81
2023/06/22 09:32:05;;;;;;;18.10;13.15;;;32.60;82.40;;;;;;4941714;29;20036;-80
2023/06/22 09:34:31;;;;;;;19.02;13.82;;;33.00;86.50;;;;;;4934611;29;20036;-80
2023/06/22 09:36:57;;;;;;;18.30;13.35;;;33.20;85.70;;;;;;4944665;28;20427;-81
2023/06/22 09:39:23;;;;;;;26.08;15.15;;;33.10;81.60;;;;;;4942905;28;20452;-81
2023/06/22 09:41:49;;;;;;;17.73;12.85;;;32.90;81.90;;;;;;4937872;29;20076;-82
2023/06/22 09:44:15;;;;;;;18.40;13.93;;;33.10;85.50;;;;;;4937143;28;20106;-76
2023/06/22 09:46:40;;;;;;;21.55;13.27;;;33.10;82.90;;;;;;4936762;29;20131;-75
2023/06/22 09:49:06;;;;;;;22.67;15.30;;;33.00;84.60;;;;;;4944614;29;20483;-74
2023/06/22 09:51:32;;;;;;;20.08;14.15;;;32.60;83.00;;;;;;4954930;28;20038;-73
2023/06/22 09:53:58;;;;;;;25.45;15.93;;;32.90;82.50;;;;;;4954874;28;20486;-81
2023/06/22 09:56:24;;;;;;;18.98;15.55;;;32.80;83.90;;;;;;4939182;29;20027;-80
2023/06/22 09:58:52;;;;;;;28.15;16.77;;;32.50;84.00;;;;;;4951549;28;20079;-72
2023/06/22 10:01:18;;;;;;;22.58;16.40;;;32.80;84.50;;;;;;4953510;28;20398;-74
2023/06/22 10:03:44;;;;;;;36.65;16.63;;;32.90;86.80;;;;;;4957216;28;20027;-79
2023/06/22 10:06:10;;;;;;;22.17;13.27;;;33.10;87.40;;;;;;4953833;28;20035;-84
2023/06/22 10:08:36;;;;;;;16.48;12.57;;;33.30;87.50;;;;;;4954657;28;20095;-82
2023/06/22 10:11:02;;;;;;;19.70;12.10;;;33.30;83.80;;;;;;4954708;28;20394;-80
2023/06/22 10:13:28;;;;;;;18.42;11.60;;;33.40;82.80;;;;;;4954202;29;20019;-81
2023/06/22 10:15:54;;;;;;;18.77;12.52;;;33.40;85.00;;;;;;4940648;29;20042;-81
2023/06/22 10:18:20;;;;;;;16.90;12.25;;;33.30;81.80;;;;;;4948613;28;20070;-83
2023/06/22 10:20:51;;;;;;;16.40;11.25;;;33.40;87.40;;;;;;4954780;28;20156;-83
2023/06/22 10:23:17;;;;;;;18.43;13.23;;;32.90;80.40;;;;;;4954232;28;20063;-78
2023/06/22 10:25:43;;;;;;;18.48;13.38;;;32.90;80.90;;;;;;4954594;28;20077;-81
2023/06/22 10:28:08;;;;;;;18.30;12.93;;;33.30;82.70;;;;;;4953979;28;20074;-81
2023/06/22 10:30:35;;;;;;;18.73;11.75;;;33.40;79.30;;;;;;4954741;28;20039;-81
2023/06/22 10:33:00;;;;;;;16.98;11.43;;;33.40;80.70;;;;;;4954551;28;20139;-78
2023/06/22 10:35:26;;;;;;;21.73;12.95;;;33.50;79.20;;;;;;4954200;28;20494;-83
2023/06/22 10:37:54;;;;;;;17.27;11.57;;;33.50;83.10;;;;;;4954463;28;20074;-80
2023/06/22 10:40:20;;;;;;;25.88;11.73;;;33.50;80.90;;;;;;4953984;28;20031;-73
2023/06/22 10:42:46;;;;;;;14.20;10.57;;;33.10;79.10;;;;;;4954234;28;20023;-82
2023/06/22 10:45:12;;;;;;;15.00;11.13;;;33.10;81.00;;;;;;4953963;28;20035;-78
2023/06/22 10:47:38;;;;;;;18.38;11.52;;;33.30;81.00;;;;;;4954167;28;20031;-79
2023/06/22 10:50:04;;;;;;;15.20;10.95;;;33.40;84.50;;;;;;4953857;28;20023;-85
2023/06/22 10:52:30;;;;;;;21.83;12.60;;;33.70;85.40;;;;;;4954405;28;20087;-75
2023/06/22 10:54:56;;;;;;;19.42;11.68;;;33.70;87.40;;;;;;4953789;29;20023;-80
2023/06/22 10:57:22;;;;;;;15.20;10.90;;;33.80;83.90;;;;;;4953544;28;20047;-74
2023/06/22 10:59:48;;;;;;;15.95;11.07;;;33.80;83.20;;;;;;4954125;29;20020;-82
2023/06/22 11:02:14;;;;;;;15.38;10.93;;;33.80;81.80;;;;;;4953769;28;20035;-72
2023/06/22 11:04:39;;;;;;;15.73;11.23;;;33.80;81.90;;;;;;4953867;28;20059;-74
2023/06/22 11:07:06;;;;;;;14.57;10.77;;;33.40;80.50;;;;;;4953350;28;20039;-81
2023/06/22 11:09:32;;;;;;;17.63;11.68;;;33.70;83.00;;;;;;4956702;28;20075;-80
2023/06/22 11:11:58;;;;;;;15.60;12.10;;;33.50;81.20;;;;;;4957307;28;20462;-83
2023/06/22 11:14:25;;;;;;;17.88;12.20;;;33.60;85.10;;;;;;4958073;29;20111;-80
2023/06/22 11:16:51;;;;;;;18.58;11.88;;;33.60;83.30;;;;;;4957526;28;20073;-76
2023/06/22 11:19:18;;;;;;;16.05;11.15;;;33.60;83.70;;;;;;4957925;28;20082;-79
2023/06/22 11:21:44;;;;;;;17.42;11.35;;;33.50;82.50;;;;;;4957196;28;20051;-80
2023/06/22 11:24:10;;;;;;;16.02;10.85;;;33.50;82.70;;;;;;4957788;28;20023;-83
2023/06/22 11:26:36;;;;;;;16.70;11.50;;;33.30;80.30;;;;;;4957327;28;20431;-84
2023/06/22 11:29:06;;;;;;;28.42;12.15;;;33.50;83.90;;;;;;4957718;28;20045;-74
2023/06/22 11:31:32;;;;;;;16.67;11.77;;;33.40;83.90;;;;;;4957538;28;20118;-81
2023/06/22 11:33:58;;;;;;;19.13;11.77;;;33.10;80.80;;;;;;4957413;28;20034;-79
2023/06/22 11:36:25;;;;;;;16.20;11.40;;;33.00;81.80;;;;;;4957198;28;20470;-81
2023/06/22 11:38:51;;;;;;;19.23;11.10;;;33.30;81.50;;;;;;4940103;29;20035;-79
2023/06/22 11:41:17;;;;;;;20.17;11.38;;;33.30;82.50;;;;;;4957011;28;20120;-77
2023/06/22 11:43:43;;;;;;;15.02;11.15;;;33.30;85.90;;;;;;4957159;28;20019;-82
2023/06/22 11:46:09;;;;;;;15.35;11.18;;;33.50;84.20;;;;;;4957210;28;20031;-83
2023/06/22 11:48:36;;;;;;;13.90;10.10;;;33.50;82.70;;;;;;4957244;28;20023;-73
2023/06/22 11:51:03;;;;;;;18.02;11.00;;;33.50;82.90;;;;;;4957302;28;20479;-78
2023/06/22 11:53:29;;;;;;;17.88;10.07;;;33.50;81.70;;;;;;4957199;28;20031;-79
2023/06/22 11:55:55;;;;;;;15.27;10.63;;;33.50;83.60;;;;;;4940315;29;20053;-73
2023/06/22 11:58:22;;;;;;;13.13;9.55;;;33.60;83.10;;;;;;4957029;28;20031;-73
2023/06/22 12:00:48;;;;;;;19.35;10.15;;;33.30;79.30;;;;;;4956973;28;20486;-72
2023/06/22 12:03:17;;;;;;;15.10;10.07;;;33.40;79.70;;;;;;4956712;28;20035;-78
2023/06/22 12:05:43;;;;;;;14.43;9.73;;;33.30;78.70;;;;;;4956818;29;20087;-77
2023/06/22 12:08:09;;;;;;;16.40;9.65;;;33.10;78.40;;;;;;4956499;29;20055;-73
2023/06/22 12:10:35;;;;;;;15.02;9.25;;;33.30;79.20;;;;;;4956358;28;20031;-74
2023/06/22 12:13:00;;;;;;;13.90;9.63;;;33.40;78.60;;;;;;4956480;28;20031;-84
2023/06/22 12:15:27;;;;;;;13.27;9.85;;;33.50;79.30;;;;;;4939927;29;20416;-78
2023/06/22 12:17:53;;;;;;;13.60;9.32;;;33.60;78.40;;;;;;4956795;28;20027;-78
2023/06/22 12:20:20;;;;;;;15.15;9.18;;;33.40;77.60;;;;;;4956407;28;20043;-83
2023/06/22 12:22:47;;;;;;;13.13;8.77;;;33.20;79.90;;;;;;4956212;28;20391;-83
2023/06/22 12:25:13;;;;;;;14.05;8.73;;;33.40;79.60;;;;;;4956516;28;20078;-78
2023/06/22 12:27:39;;;;;;;13.40;9.48;;;33.40;77.70;;;;;;4955054;28;20505;-81